createdAt,value
2023-05-17T00:00:24.297Z,7.90
2023-05-17T00:03:11.703Z,7.90
2023-05-17T00:05:39.084Z,7.90
2023-05-17T00:08:06.428Z,7.90
2023-05-17T00:10:33.854Z,7.90
2023-05-17T00:13:01.146Z,7.80
2023-05-17T00:15:28.677Z,7.90
2023-05-17T00:17:56.325Z,7.90
2023-05-17T00:20:23.720Z,7.80
2023-05-17T00:22:51.026Z,7.80
2023-05-17T00:25:18.430Z,7.60
2023-05-17T00:27:46.127Z,7.60
2023-05-17T00:30:13.543Z,7.70
2023-05-17T00:32:41.191Z,7.60
2023-05-17T00:35:08.543Z,7.60
2023-05-17T00:37:35.934Z,7.50
2023-05-17T00:40:04.290Z,7.40
2023-05-17T00:42:31.620Z,7.40
2023-05-17T00:44:58.876Z,7.40
2023-05-17T00:47:26.197Z,7.30
2023-05-17T00:49:53.511Z,7.50
2023-05-17T00:52:20.878Z,7.50
2023-05-17T00:54:48.585Z,7.50
2023-05-17T00:57:16.429Z,7.40
2023-05-17T00:59:45.325Z,7.40
2023-05-17T01:02:13.059Z,7.30
2023-05-17T01:04:41.564Z,7.40
2023-05-17T01:07:09.994Z,7.40
2023-05-17T01:09:37.939Z,7.30
2023-05-17T01:12:16.974Z,7.40
2023-05-17T01:15:29.797Z,7.60
2023-05-17T01:18:22.060Z,7.40
2023-05-17T01:20:52.691Z,7.50
2023-05-17T01:23:32.448Z,7.50
2023-05-17T01:26:16.800Z,7.50
2023-05-17T01:28:52.564Z,7.60
2023-05-17T01:31:21.190Z,7.70
2023-05-17T01:33:48.553Z,7.60
2023-05-17T01:36:16.050Z,7.50
2023-05-17T01:38:43.382Z,7.60
2023-05-17T01:41:33.609Z,7.40
2023-05-17T01:44:10.542Z,7.40
2023-05-17T01:46:43.265Z,7.40
2023-05-17T01:49:24.409Z,7.50
2023-05-17T01:52:17.146Z,7.50
2023-05-17T01:55:04.469Z,7.40
2023-05-17T01:57:36.128Z,7.30
2023-05-17T02:00:07.123Z,7.30
2023-05-17T02:02:34.576Z,7.30
2023-05-17T02:05:02.056Z,7.20
2023-05-17T02:07:29.348Z,7.40
2023-05-17T02:09:56.801Z,7.30
2023-05-17T02:12:25.469Z,7.40
2023-05-17T02:14:52.764Z,7.40
2023-05-17T02:17:20.161Z,7.40
2023-05-17T02:19:47.590Z,7.40
2023-05-17T02:22:14.990Z,7.30
2023-05-17T02:24:42.268Z,7.20
2023-05-17T02:27:09.556Z,7.10
2023-05-17T02:29:36.895Z,7.20
2023-05-17T02:32:06.333Z,7.20
2023-05-17T02:34:33.757Z,7.30
2023-05-17T02:37:00.952Z,7.20
2023-05-17T02:39:28.188Z,7.10
2023-05-17T02:41:55.569Z,7.10
2023-05-17T02:44:22.765Z,7.20
2023-05-17T02:46:50.079Z,7.10
2023-05-17T02:49:17.356Z,7.10
2023-05-17T02:51:44.982Z,7.10
2023-05-17T02:54:12.284Z,7.20
2023-05-17T02:56:39.649Z,7.00
2023-05-17T02:59:06.968Z,7.00
2023-05-17T03:01:34.352Z,7.00
2023-05-17T03:04:01.715Z,7.00
2023-05-17T03:06:29.181Z,7.10
2023-05-17T03:08:56.360Z,7.30
2023-05-17T03:11:23.766Z,7.40
2023-05-17T03:13:52.237Z,7.30
2023-05-17T03:16:19.434Z,7.30
2023-05-17T03:18:47.099Z,7.40
2023-05-17T03:21:14.504Z,7.40
2023-05-17T03:23:41.693Z,7.40
2023-05-17T03:26:08.966Z,7.40
2023-05-17T03:28:36.213Z,7.30
2023-05-17T03:31:03.709Z,7.40
2023-05-17T03:33:31.134Z,7.40
2023-05-17T03:35:58.464Z,7.50
2023-05-17T03:38:25.732Z,7.50
2023-05-17T03:40:53.564Z,7.50
2023-05-17T03:43:21.200Z,7.50
2023-05-17T03:45:48.549Z,7.60
2023-05-17T03:48:16.427Z,7.60
2023-05-17T03:50:43.787Z,7.60
2023-05-17T03:53:11.392Z,7.90
2023-05-17T03:55:38.721Z,7.90
2023-05-17T03:58:06.075Z,7.90
2023-05-17T04:00:33.366Z,8.10
2023-05-17T04:03:00.983Z,8.00
2023-05-17T04:05:28.765Z,8.30
2023-05-17T04:07:56.809Z,8.50
2023-05-17T04:10:24.255Z,8.50
2023-05-17T04:12:51.632Z,8.70
2023-05-17T04:15:18.880Z,8.90
2023-05-17T04:17:46.169Z,8.80
2023-05-17T04:20:13.699Z,8.70
2023-05-17T04:22:41.058Z,8.80
2023-05-17T04:25:08.689Z,9.10
2023-05-17T04:27:35.939Z,9.40
2023-05-17T04:30:04.656Z,9.80
2023-05-17T04:32:34.358Z,10.00
2023-05-17T04:35:02.118Z,9.90
2023-05-17T04:37:29.482Z,10.70
2023-05-17T04:39:56.821Z,11.90
2023-05-17T04:42:24.054Z,11.20
2023-05-17T04:44:51.597Z,10.30
2023-05-17T04:47:19.133Z,10.10
2023-05-17T04:49:46.574Z,9.90
2023-05-17T04:52:13.776Z,9.60
2023-05-17T04:54:41.136Z,9.50
2023-05-17T04:57:08.449Z,9.60
2023-05-17T04:59:35.698Z,9.90
2023-05-17T05:02:02.911Z,10.00
2023-05-17T05:04:30.154Z,10.20
2023-05-17T05:06:57.506Z,10.40
2023-05-17T05:09:24.796Z,10.10
2023-05-17T05:11:52.050Z,10.30
2023-05-17T05:14:19.385Z,10.60
2023-05-17T05:16:46.739Z,10.80
2023-05-17T05:19:14.124Z,10.80
2023-05-17T05:21:41.810Z,10.90
2023-05-17T05:24:09.725Z,10.90
2023-05-17T05:26:37.293Z,11.10
2023-05-17T05:29:04.523Z,11.20
2023-05-17T05:31:31.770Z,11.40
2023-05-17T05:33:59.051Z,11.90
2023-05-17T05:36:26.486Z,12.10
2023-05-17T05:38:54.990Z,12.40
2023-05-17T05:41:22.251Z,12.80
2023-05-17T05:43:49.641Z,12.90
2023-05-17T05:46:17.054Z,13.20
2023-05-17T05:48:45.292Z,13.70
2023-05-17T05:51:12.860Z,14.30
2023-05-17T05:53:40.205Z,15.70
2023-05-17T05:56:07.598Z,16.70
2023-05-17T05:58:34.856Z,17.10
2023-05-17T06:01:03.908Z,18.40
2023-05-17T06:03:32.678Z,19.60
2023-05-17T06:06:00.132Z,17.80
2023-05-17T06:08:27.492Z,17.60
2023-05-17T06:10:55.290Z,16.60
2023-05-17T06:13:22.677Z,16.00
2023-05-17T06:15:49.919Z,15.80
2023-05-17T06:18:17.285Z,15.60
2023-05-17T06:20:44.577Z,15.30
2023-05-17T06:23:11.802Z,14.60
2023-05-17T06:25:40.509Z,14.70
2023-05-17T06:28:09.425Z,14.20
2023-05-17T06:30:36.900Z,16.10
2023-05-17T06:33:04.323Z,19.40
2023-05-17T06:35:40.585Z,21.70
2023-05-17T06:38:15.118Z,21.20
2023-05-17T06:40:42.519Z,19.50
2023-05-17T06:43:09.770Z,19.00
2023-05-17T06:45:37.078Z,22.80
2023-05-17T06:48:04.753Z,24.00
2023-05-17T06:50:32.643Z,24.30
2023-05-17T06:53:00.094Z,22.80
2023-05-17T06:55:29.050Z,20.30
2023-05-17T06:57:57.510Z,18.80
2023-05-17T07:00:24.837Z,19.90
2023-05-17T07:02:52.583Z,20.20
2023-05-17T07:05:20.059Z,22.40
2023-05-17T07:07:47.407Z,24.80
2023-05-17T07:10:14.813Z,23.80
2023-05-17T07:12:42.227Z,21.70
2023-05-17T07:15:10.412Z,18.50
2023-05-17T07:17:38.118Z,19.50
2023-05-17T07:20:06.668Z,18.60
2023-05-17T07:22:34.199Z,19.80
2023-05-17T07:25:01.681Z,22.70
2023-05-17T07:27:29.009Z,25.00
2023-05-17T07:29:56.285Z,22.80
2023-05-17T07:32:23.687Z,20.20
2023-05-17T07:34:50.986Z,19.00
2023-05-17T07:37:18.285Z,22.10
2023-05-17T07:39:45.895Z,24.30
2023-05-17T07:42:13.593Z,26.80
2023-05-17T07:44:40.931Z,26.80
2023-05-17T07:47:08.363Z,27.30
2023-05-17T07:49:35.775Z,27.90
2023-05-17T07:52:03.276Z,23.00
2023-05-17T07:54:31.312Z,26.80
2023-05-17T07:56:59.836Z,28.30
2023-05-17T07:59:27.292Z,30.10
2023-05-17T08:01:54.617Z,29.90
2023-05-17T08:04:21.956Z,30.70
2023-05-17T08:06:50.500Z,30.70
2023-05-17T08:09:17.871Z,31.30
2023-05-17T08:11:48.111Z,30.40
2023-05-17T08:14:16.785Z,30.70
2023-05-17T08:16:47.391Z,32.30
2023-05-17T08:19:16.127Z,31.50
2023-05-17T08:21:46.322Z,33.10
2023-05-17T08:24:13.684Z,28.60
2023-05-17T08:26:41.266Z,29.20
2023-05-17T08:29:11.194Z,29.30
2023-05-17T08:31:38.631Z,30.40
2023-05-17T08:34:06.167Z,29.60
2023-05-17T08:36:33.566Z,30.00
2023-05-17T08:39:01.128Z,30.40
2023-05-17T08:41:28.850Z,32.20
2023-05-17T08:43:57.284Z,29.40
2023-05-17T08:46:27.128Z,27.90
2023-05-17T08:49:00.083Z,30.60
2023-05-17T08:51:28.157Z,32.90
2023-05-17T08:53:56.332Z,34.10
2023-05-17T08:56:26.245Z,32.80
2023-05-17T08:58:58.766Z,32.60
2023-05-17T09:01:27.561Z,32.00
2023-05-17T09:03:56.265Z,29.10
2023-05-17T09:06:24.513Z,31.20
2023-05-17T09:08:55.609Z,31.30
2023-05-17T09:11:31.386Z,32.90
2023-05-17T09:14:03.367Z,33.40
2023-05-17T09:16:32.014Z,30.90
2023-05-17T09:19:00.088Z,32.00
2023-05-17T09:21:28.482Z,30.50
2023-05-17T09:26:26.398Z,24.40
2023-05-17T09:28:53.733Z,22.00
2023-05-17T09:31:21.228Z,24.60
2023-05-17T09:33:52.083Z,30.50
2023-05-17T09:36:24.257Z,33.30
2023-05-17T09:39:00.160Z,31.00
2023-05-17T09:41:28.803Z,33.00
2023-05-17T09:44:03.990Z,30.50
2023-05-17T09:46:38.982Z,33.70
2023-05-17T09:49:07.619Z,34.70
2023-05-17T09:51:45.190Z,35.90
2023-05-17T09:54:12.564Z,36.40
2023-05-17T09:56:40.419Z,33.20
2023-05-17T09:59:13.234Z,35.40
2023-05-17T10:01:41.834Z,31.90
2023-05-17T10:04:12.923Z,27.80
2023-05-17T10:09:14.700Z,29.70
2023-05-17T10:11:46.349Z,27.90
2023-05-17T10:14:32.793Z,25.50
2023-05-17T10:17:01.386Z,29.60
2023-05-17T10:19:29.322Z,32.50
2023-05-17T10:22:05.002Z,33.80
2023-05-17T10:24:40.173Z,31.30
2023-05-17T10:27:10.136Z,33.80
2023-05-17T10:29:40.206Z,32.40
2023-05-17T10:32:08.209Z,29.70
2023-05-17T10:34:36.764Z,32.10
2023-05-17T10:37:05.285Z,33.60
2023-05-17T10:39:37.401Z,33.90
2023-05-17T10:44:41.452Z,31.70
2023-05-17T10:47:09.132Z,28.60
2023-05-17T10:49:39.235Z,28.40
2023-05-17T10:52:21.728Z,26.80
2023-05-17T10:54:50.718Z,27.30
2023-05-17T10:57:38.987Z,31.10
2023-05-17T11:00:20.523Z,30.40
2023-05-17T11:02:49.317Z,29.00
2023-05-17T11:05:25.157Z,25.30
2023-05-17T11:07:52.591Z,23.70
2023-05-17T11:10:19.856Z,25.30
2023-05-17T11:12:54.317Z,25.80
2023-05-17T11:15:26.683Z,27.40
2023-05-17T11:17:54.472Z,25.00
2023-05-17T11:20:28.353Z,24.80
2023-05-17T11:23:00.415Z,26.50
2023-05-17T11:25:32.861Z,28.40
2023-05-17T11:28:00.398Z,31.00
2023-05-17T11:30:30.731Z,30.50
2023-05-17T11:33:00.568Z,31.40
2023-05-17T11:35:32.261Z,31.70
2023-05-17T11:38:20.732Z,31.30
2023-05-17T11:40:54.094Z,31.20
2023-05-17T11:43:23.511Z,31.80
2023-05-17T11:45:53.716Z,30.80
2023-05-17T11:48:23.196Z,31.00
2023-05-17T11:50:53.672Z,30.90
2023-05-17T11:53:21.845Z,30.20
2023-05-17T11:55:51.888Z,31.10
2023-05-17T11:58:27.142Z,30.60
2023-05-17T12:00:56.789Z,30.50
2023-05-17T12:03:32.008Z,30.30
2023-05-17T12:06:06.099Z,30.60
2023-05-17T12:08:35.582Z,30.00
2023-05-17T12:11:04.417Z,28.80
2023-05-17T12:13:33.309Z,28.40
2023-05-17T12:16:03.273Z,28.70
2023-05-17T12:18:38.658Z,26.70
2023-05-17T12:21:07.260Z,25.10
2023-05-17T12:23:43.856Z,23.90
2023-05-17T12:26:13.055Z,23.10
2023-05-17T12:28:44.910Z,22.70
2023-05-17T12:31:18.129Z,22.50
2023-05-17T12:33:48.182Z,22.40
2023-05-17T12:36:16.066Z,21.60
2023-05-17T12:38:44.855Z,21.30
2023-05-17T12:41:15.810Z,21.30
2023-05-17T12:43:46.901Z,21.50
2023-05-17T12:46:19.208Z,21.40
2023-05-17T12:48:48.096Z,21.20
2023-05-17T12:51:22.644Z,21.00
2023-05-17T12:53:51.936Z,20.90
2023-05-17T12:56:22.653Z,20.60
2023-05-17T12:59:14.557Z,20.70
2023-05-17T13:01:47.672Z,20.90
2023-05-17T13:04:16.932Z,20.40
2023-05-17T13:06:55.506Z,20.50
2023-05-17T13:09:25.246Z,19.90
2023-05-17T13:11:54.193Z,19.50
2023-05-17T13:14:34.732Z,19.60
2023-05-17T13:17:03.491Z,19.80
2023-05-17T13:19:31.061Z,20.00
2023-05-17T13:21:58.449Z,19.70
2023-05-17T13:24:28.505Z,20.00
2023-05-17T13:26:59.034Z,20.20
2023-05-17T13:29:38.698Z,20.30
2023-05-17T13:32:16.022Z,21.20
2023-05-17T13:34:48.108Z,21.50
2023-05-17T13:37:16.106Z,21.20
2023-05-17T13:39:43.447Z,21.20
2023-05-17T13:42:12.455Z,21.40
2023-05-17T13:44:40.521Z,21.20
2023-05-17T13:47:07.924Z,20.10
2023-05-17T13:49:35.440Z,20.40
2023-05-17T13:52:04.092Z,19.90
2023-05-17T13:54:31.330Z,19.60
2023-05-17T13:56:58.619Z,20.00
2023-05-17T13:59:26.560Z,19.90
2023-05-17T14:01:53.964Z,20.20
2023-05-17T14:04:21.651Z,19.90
2023-05-17T14:06:51.130Z,19.80
2023-05-17T14:09:20.630Z,19.40
2023-05-17T14:11:47.923Z,19.30
2023-05-17T14:14:15.444Z,19.20
2023-05-17T14:16:42.909Z,19.00
2023-05-17T14:19:10.242Z,18.90
2023-05-17T14:21:37.686Z,18.70
2023-05-17T14:24:05.849Z,19.10
2023-05-17T14:26:35.510Z,19.10
2023-05-17T14:29:02.996Z,19.30
2023-05-17T14:31:32.681Z,19.40
2023-05-17T14:34:04.019Z,19.70
2023-05-17T14:36:32.079Z,19.50
2023-05-17T14:39:01.350Z,18.80
2023-05-17T14:41:28.939Z,19.00
2023-05-17T14:43:56.241Z,19.20
2023-05-17T14:46:24.000Z,18.70
2023-05-17T14:48:52.699Z,18.50
2023-05-17T14:51:20.136Z,18.80
2023-05-17T14:53:47.624Z,19.00
2023-05-17T14:56:15.446Z,18.60
2023-05-17T14:58:42.891Z,18.70
2023-05-17T15:01:11.342Z,18.70
2023-05-17T15:03:38.752Z,18.50
2023-05-17T15:06:08.829Z,18.30
2023-05-17T15:08:37.254Z,18.20
2023-05-17T15:11:04.897Z,18.40
2023-05-17T15:13:32.596Z,18.50
2023-05-17T15:16:00.358Z,18.50
2023-05-17T15:18:27.702Z,18.50
2023-05-17T15:20:55.212Z,18.60
2023-05-17T15:23:22.574Z,18.40
2023-05-17T15:25:49.805Z,18.20
2023-05-17T15:28:20.089Z,17.90
2023-05-17T15:30:47.850Z,17.70
2023-05-17T15:33:15.235Z,17.90
2023-05-17T15:35:43.366Z,17.60
2023-05-17T15:38:11.056Z,17.40
2023-05-17T15:40:38.390Z,17.40
2023-05-17T15:43:05.591Z,17.30
2023-05-17T15:45:33.117Z,17.20
2023-05-17T15:48:02.224Z,17.20
2023-05-17T15:50:29.749Z,17.40
2023-05-17T15:52:57.051Z,17.40
2023-05-17T15:55:24.374Z,17.20
2023-05-17T15:57:51.631Z,17.20
2023-05-17T16:00:19.287Z,17.10
2023-05-17T16:02:47.328Z,17.10
2023-05-17T16:05:14.832Z,17.10
2023-05-17T16:07:42.327Z,17.00
2023-05-17T16:10:10.080Z,17.10
2023-05-17T16:12:37.291Z,17.00
2023-05-17T16:15:04.919Z,16.90
2023-05-17T16:17:32.600Z,16.70
2023-05-17T16:20:00.582Z,16.70
2023-05-17T16:22:28.147Z,16.80
2023-05-17T16:24:56.069Z,16.70
2023-05-17T16:27:23.388Z,16.80
2023-05-17T16:29:50.708Z,16.70
2023-05-17T16:32:18.162Z,16.40
2023-05-17T16:34:45.947Z,16.30
2023-05-17T16:37:13.383Z,16.30
2023-05-17T16:39:40.803Z,16.20
2023-05-17T16:42:08.266Z,16.20
2023-05-17T16:44:35.595Z,16.20
2023-05-17T16:47:03.955Z,16.20
2023-05-17T16:49:31.274Z,16.10
2023-05-17T16:51:58.664Z,16.00
2023-05-17T16:54:28.331Z,16.00
2023-05-17T16:56:56.624Z,15.90
2023-05-17T16:59:24.007Z,15.80
2023-05-17T17:01:51.580Z,15.60
2023-05-17T17:04:20.092Z,15.40
2023-05-17T17:06:47.577Z,15.50
2023-05-17T17:09:15.197Z,15.90
2023-05-17T17:11:42.391Z,16.10
2023-05-17T17:14:11.197Z,16.00
2023-05-17T17:16:39.136Z,16.20
2023-05-17T17:19:06.680Z,16.10
2023-05-17T17:21:38.811Z,16.00
2023-05-17T17:24:06.937Z,15.90
2023-05-17T17:26:35.648Z,15.30
2023-05-17T17:29:08.329Z,15.60
2023-05-17T17:31:35.933Z,15.60
2023-05-17T17:34:03.265Z,15.40
2023-05-17T17:36:31.372Z,15.30
2023-05-17T17:38:58.726Z,15.10
2023-05-17T17:41:29.145Z,15.10
2023-05-17T17:43:56.461Z,15.00
2023-05-17T17:46:24.656Z,14.90
2023-05-17T17:48:52.344Z,15.00
2023-05-17T17:51:19.980Z,14.90
2023-05-17T17:53:48.966Z,14.50
2023-05-17T17:56:16.830Z,14.40
2023-05-17T17:58:44.209Z,14.50
2023-05-17T18:01:11.548Z,14.40
2023-05-17T18:03:38.852Z,14.50
2023-05-17T18:06:07.312Z,14.50
2023-05-17T18:08:34.765Z,14.50
2023-05-17T18:11:02.829Z,14.50
2023-05-17T18:13:30.115Z,14.30
2023-05-17T18:15:57.569Z,14.30
2023-05-17T18:18:24.824Z,13.90
2023-05-17T18:20:52.365Z,14.10
2023-05-17T18:23:19.684Z,14.00
2023-05-17T18:25:49.178Z,14.00
2023-05-17T18:28:18.321Z,13.80
2023-05-17T18:30:48.915Z,13.70
2023-05-17T18:33:16.349Z,13.90
2023-05-17T18:35:44.598Z,14.00
2023-05-17T18:38:12.095Z,13.60
2023-05-17T18:40:39.598Z,13.60
2023-05-17T18:43:07.045Z,13.50
2023-05-17T18:45:36.613Z,13.60
2023-05-17T18:48:04.376Z,13.60
2023-05-17T18:50:31.866Z,13.20
2023-05-17T18:53:02.766Z,13.10
2023-05-17T18:55:30.586Z,13.10
2023-05-17T18:57:57.866Z,13.10
2023-05-17T19:00:25.210Z,13.30
2023-05-17T19:02:53.657Z,12.90
2023-05-17T19:05:21.624Z,12.90
2023-05-17T19:07:48.999Z,12.80
2023-05-17T19:10:16.566Z,13.00
2023-05-17T19:12:45.620Z,12.90
2023-05-17T19:15:13.222Z,13.00
2023-05-17T19:17:41.467Z,13.00
2023-05-17T19:20:09.832Z,13.20
2023-05-17T19:22:37.258Z,13.10
2023-05-17T19:25:04.998Z,13.10
2023-05-17T19:27:32.391Z,13.10
2023-05-17T19:29:59.613Z,13.00
2023-05-17T19:32:27.242Z,13.10
2023-05-17T19:34:55.274Z,13.00
2023-05-17T19:37:22.797Z,12.90
2023-05-17T19:39:50.139Z,12.90
2023-05-17T19:42:18.487Z,13.10
2023-05-17T19:44:46.074Z,13.00
2023-05-17T19:47:13.328Z,13.10
2023-05-17T19:49:40.605Z,13.10
2023-05-17T19:52:07.936Z,13.00
2023-05-17T19:54:35.293Z,13.00
2023-05-17T19:57:02.537Z,13.00
2023-05-17T19:59:29.962Z,12.80
2023-05-17T20:01:57.542Z,12.90
2023-05-17T20:04:24.918Z,13.00
2023-05-17T20:06:52.255Z,12.90
2023-05-17T20:09:19.735Z,12.90
2023-05-17T20:11:47.288Z,12.70
2023-05-17T20:14:16.489Z,12.80
2023-05-17T20:16:43.730Z,12.80
2023-05-17T20:19:11.138Z,12.90
2023-05-17T20:21:38.494Z,12.90
2023-05-17T20:24:06.938Z,12.80
2023-05-17T20:26:37.369Z,12.70
2023-05-17T20:29:07.647Z,12.80
2023-05-17T20:31:35.936Z,12.90
2023-05-17T20:34:04.392Z,12.80
2023-05-17T20:36:31.994Z,12.70
2023-05-17T20:38:59.311Z,12.60
2023-05-17T20:41:26.711Z,12.70
2023-05-17T20:43:54.159Z,12.70
2023-05-17T20:46:21.814Z,12.80
2023-05-17T20:48:50.052Z,12.70
2023-05-17T20:51:18.213Z,12.70
2023-05-17T20:53:46.683Z,12.70
2023-05-17T20:56:19.591Z,12.60
2023-05-17T20:58:47.849Z,12.60
2023-05-17T21:01:15.147Z,12.60
2023-05-17T21:03:44.193Z,12.70
2023-05-17T21:06:11.564Z,12.70
2023-05-17T21:08:39.239Z,12.70
2023-05-17T21:11:06.500Z,12.70
2023-05-17T21:13:34.312Z,12.70
2023-05-17T21:16:01.614Z,12.70
2023-05-17T21:18:29.008Z,12.60
2023-05-17T21:20:56.381Z,12.60
2023-05-17T21:23:23.726Z,12.60
2023-05-17T21:25:51.384Z,12.50
2023-05-17T21:28:18.704Z,12.60
2023-05-17T21:30:46.092Z,12.60
2023-05-17T21:33:13.479Z,12.60
2023-05-17T21:35:41.014Z,12.60
2023-05-17T21:38:09.687Z,12.60
2023-05-17T21:40:37.211Z,12.60
2023-05-17T21:43:04.866Z,12.50
2023-05-17T21:45:32.496Z,12.50
2023-05-17T21:48:00.039Z,12.50
2023-05-17T21:50:27.588Z,12.50
2023-05-17T21:52:54.899Z,12.30
2023-05-17T21:55:22.307Z,12.20
2023-05-17T21:57:49.673Z,12.20
2023-05-17T22:00:17.996Z,12.20
2023-05-17T22:02:46.221Z,12.20
2023-05-17T22:05:14.078Z,12.10
2023-05-17T22:07:41.604Z,12.00
2023-05-17T22:10:10.052Z,12.00
2023-05-17T22:12:38.642Z,11.80
2023-05-17T22:15:06.890Z,11.80
2023-05-17T22:17:43.035Z,11.70
2023-05-17T22:20:17.414Z,11.70
2023-05-17T22:22:45.225Z,11.60
2023-05-17T22:25:12.564Z,11.60
2023-05-17T22:27:39.845Z,11.60
2023-05-17T22:30:07.987Z,11.60
2023-05-17T22:32:37.500Z,11.40
2023-05-17T22:35:05.219Z,11.40
2023-05-17T22:37:33.251Z,11.30
2023-05-17T22:40:00.627Z,11.20
2023-05-17T22:42:27.928Z,11.20
2023-05-17T22:44:55.319Z,11.10
2023-05-17T22:47:23.480Z,11.00
2023-05-17T22:49:52.771Z,10.90
2023-05-17T22:52:20.394Z,10.70
2023-05-17T22:54:47.773Z,10.70
2023-05-17T22:57:15.054Z,10.60
2023-05-17T22:59:44.225Z,10.60
2023-05-17T23:02:14.777Z,10.60
2023-05-17T23:04:46.076Z,10.50
2023-05-17T23:07:15.246Z,10.40
2023-05-17T23:09:42.586Z,10.30
2023-05-17T23:12:14.137Z,10.30
2023-05-17T23:14:41.806Z,10.10
2023-05-17T23:17:10.048Z,10.10
2023-05-17T23:19:37.562Z,10.00
2023-05-17T23:22:06.489Z,9.90
2023-05-17T23:24:38.986Z,9.90
2023-05-17T23:27:10.293Z,9.80
2023-05-17T23:29:37.894Z,9.70
2023-05-17T23:32:05.791Z,9.70
2023-05-17T23:34:33.893Z,9.70
2023-05-17T23:37:01.484Z,9.60
2023-05-17T23:39:28.887Z,9.50
2023-05-17T23:41:56.114Z,9.40
2023-05-17T23:44:23.408Z,9.40
2023-05-17T23:46:52.496Z,9.40
2023-05-17T23:49:19.756Z,9.30
2023-05-17T23:51:47.179Z,9.20
2023-05-17T23:54:16.425Z,9.10
2023-05-17T23:56:43.689Z,9.00
2023-05-17T23:59:12.345Z,8.90
